Impacts METAR Board
IDs:

KDFW - Dallas-Ft Worth Intl, TX, US

Updated at: 0300 UTC 06 Dec 2019
Potential Impact None Slight Moderate High
Time 05/15Z 05/16Z 05/17Z 05/18Z 05/19Z 05/20Z 05/21Z 05/22Z 05/23Z 06/00Z 06/01Z 06/02Z 06/03Z
Temp58 61 65 69 71 72 73 72 70 67 66 66 65
Dewpt42 46 49 47 48 49 53 54 57 57 57 57 57
Altim29.97 29.97 29.97 29.92 29.88 29.84 29.83 29.83 29.84 29.85 29.86 29.87 29.88
VIS10 10 10 10 10 10 10 10 10 10 10 10 10
CIG250 250 250 250 250 250 250 250 250 -- -- 110 110
CoverBKNBKNBKNBKNBKNBKNBKNBKNBKNSCTSCTBKNBKN
FltCatVFRVFRVFRVFRVFRVFRVFRVFRVFRVFRVFRVFRVFR
WX--------------------------
WDir180170200190180170170190170160170170170
WSpd6 12 18 17 19 16 15 13 10 9 10 10 8
WGst-- -- -- -- -- -- -- -- -- -- -- -- --
Raw hourly METARs
KDFW 051453Z 18006KT 10SM BKN250 14/06 A2997 RMK AO2 SLP145 T01440056 53003
KDFW 051553Z 17012KT 10SM BKN250 16/08 A2997 RMK AO2 SLP144 T01610078
KDFW 051653Z 20018KT 10SM BKN250 18/09 A2997 RMK AO2 SLP143 T01830094
KDFW 051753Z 19017KT 10SM BKN250 21/08 A2992 RMK AO2 SLP127 T02060083 10206 20106 58017
KDFW 051853Z 18019KT 10SM BKN250 22/09 A2988 RMK AO2 SLP111 T02170089
KDFW 051953Z 17016KT 10SM BKN250 22/09 A2984 RMK AO2 SLP100 T02220094
KDFW 052053Z 17015KT 10SM SCT120 BKN250 23/12 A2983 RMK AO2 SLP097 T02280117 56029
KDFW 052153Z 19013KT 10SM SCT120 BKN250 22/12 A2983 RMK AO2 SLP097 T02220122
KDFW 052253Z 17010KT 10SM SCT110 BKN250 21/14 A2984 RMK AO2 SLP099 T02110139
KDFW 052353Z 16009KT 10SM FEW110 SCT250 19/14 A2985 RMK AO2 SLP102 T01940139 10228 20194 53005
KDFW 060053Z 17010KT 10SM FEW110 SCT250 19/14 A2986 RMK AO2 SLP108 T01890139
KDFW 060153Z 17010KT 10SM BKN110 BKN250 19/14 A2987 RMK AO2 SLP112 T01890139
KDFW 060253Z 17008KT 10SM BKN110 BKN250 18/14 A2988 RMK AO2 SLP114 T01830139 51012



Page loaded:  03:43 UTC  |   07:43 PM Pacific  |   08:43 PM Mountain  |   09:43 PM Central  |   10:43 PM Eastern

 

ADVISORIES

FORECASTS

FORECASTS

OBSERVATIONS

USER TOOLS

ABOUT US